Data for 10/24/2006

Time Sea-Level Adjusted Pressure Absolute Pressure Temperature Relative Humidity Dew Point   
(mb) (inHg) (mb) (inHg) (C) (F) (%) (C) (F)
00:05 1019 30.09 848 25.04 3.4 38.1 73 -0.9 30.3
00:10 1019 30.09 848 25.04 2.7 36.8 74 -1.6 29.2
00:15 1019 30.09 848 25.04 3.1 37.6 72 -1.4 29.4
00:20 1019 30.09 848 25.04 3.2 37.7 72 -1.3 29.6
00:25 1019 30.09 848 25.04 2.9 37.3 74 -1.2 29.9
00:30 1019 30.09 848 25.04 2.8 37 75 -1.2 29.9
00:35 1019 30.09 848 25.04 2.6 36.6 74 -1.6 29
00:40 1019 30.09 848 25.04 2.7 36.9 73 -1.6 29.1
00:45 1019 30.09 848 25.04 2.9 37.2 73 -1.5 29.4
00:50 1019 30.09 848 25.04 3.1 37.6 72 -1.4 29.5
00:55 1019 30.09 848 25.04 3 37.3 73 -1.5 29.4
01:00 1019 30.09 848 25.04 2.9 37.3 73 -1.5 29.3
01:05 1019 30.09 848 25.04 2.8 37 74 -1.4 29.4
01:10 1019 30.09 848 25.04 2.7 36.9 74 -1.4 29.4
01:15 1019 30.09 848 25.04 2.8 37 73 -1.6 29.1
01:20 1018 30.06 848 25.04 2.8 37.1 73 -1.6 29.1
01:25 1019 30.09 848 25.04 2.8 37 72 -1.8 28.8
01:30 1019 30.09 848 25.04 2.8 37 71 -1.9 28.6
01:35 1018 30.06 848 25.04 3 37.5 70 -1.9 28.5
01:40 1018 30.06 848 25.04 2.9 37.2 72 -1.7 29
01:45 1018 30.06 848 25.04 2.9 37.2 72 -1.6 29.1
01:50 1018 30.06 848 25.04 2.7 36.9 73 -1.7 28.9
01:55 1018 30.06 848 25.04 2.7 36.9 74 -1.4 29.4
02:00 1018 30.06 848 25.04 2 35.6 76 -1.8 28.7
02:05 1018 30.06 848 25.04 1.9 35.4 76 -1.9 28.6
02:10 1018 30.06 848 25.04 2 35.5 77 -1.6 29.1
02:15 1018 30.06 848 25.04 2.3 36.1 75 -1.7 28.9
02:20 1018 30.06 847 25.01 2.6 36.6 73 -1.7 28.9
02:25 1018 30.06 847 25.01 2.2 36 76 -1.5 29.3
02:30 1018 30.06 847 25.01 1.9 35.4 77 -1.8 28.8
02:35 1018 30.06 847 25.01 1.9 35.4 78 -1.6 29
02:40 1018 30.06 847 25.01 1.6 34.9 79 -1.7 29
02:45 1018 30.06 847 25.01 1.5 34.8 79 -1.8 28.8
02:50 1018 30.06 847 25.01 1.5 34.7 78 -1.9 28.6
02:55 1018 30.06 847 25.01 1.6 34.9 78 -1.9 28.6
03:00 1018 30.06 847 25.01 1.8 35.3 77 -1.9 28.6
03:05 1018 30.06 847 25.01 2 35.6 77 -1.7 29
03:10 1018 30.06 847 25.01 1.8 35.2 78 -1.7 28.9
03:15 1018 30.06 847 25.01 2.1 35.9 74 -2 28.4
03:20 1018 30.06 847 25.01 2.4 36.3 74 -1.8 28.7
03:25 1018 30.06 847 25.01 2.2 35.9 75 -1.8 28.7
03:30 1018 30.06 847 25.01 2.2 35.9 74 -2 28.3
03:35 1018 30.06 847 25.01 2.3 36.1 72 -2.2 28
03:40 1018 30.06 847 25.01 2.4 36.3 72 -2.2 28.1
03:45 1017 30.03 847 25.01 2.4 36.4 73 -1.9 28.5
03:50 1017 30.03 847 25.01 2.3 36.2 72 -2.1 28.2
03:55 1017 30.03 846 24.98 2.3 36.2 73 -2.1 28.3
04:00 1017 30.03 846 24.98 2.2 35.9 74 -2 28.4
04:05 1017 30.03 846 24.98 2.2 35.9 74 -1.9 28.6
04:10 1017 30.03 846 24.98 2 35.6 75 -2 28.5
04:15 1017 30.03 846 24.98 2 35.6 74 -2.2 28.1
04:20 1017 30.03 846 24.98 1.4 34.6 77 -2.2 28.1
04:25 1017 30.03 846 24.98 1.4 34.5 77 -2.2 28.1
04:30 1017 30.03 846 24.98 1.3 34.4 78 -2.1 28.2
04:35 1017 30.03 846 24.98 1.4 34.5 78 -2.1 28.2
04:40 1017 30.03 846 24.98 1.4 34.5 77 -2.3 27.9
04:45 1017 30.03 846 24.98 1.5 34.7 75 -2.4 27.6
04:50 1017 30.03 846 24.98 1.6 34.9 74 -2.5 27.5
04:55 1017 30.03 846 24.98 1.6 34.9 74 -2.5 27.4
05:00 1017 30.03 846 24.98 1.8 35.2 73 -2.5 27.6
05:05 1016 30 846 24.98 1.7 35.1 74 -2.4 27.6
05:10 1016 30 846 24.98 1.7 35.1 74 -2.4 27.6
05:15 1016 30 846 24.98 1.8 35.3 75 -2.1 28.3
05:20 1016 30 846 24.98 1.5 34.8 76 -2.3 27.9
05:25 1016 30 846 24.98 1.8 35.2 75 -2.3 27.9
05:30 1016 30 846 24.98 1.9 35.4 73 -2.4 27.7
05:35 1016 30 846 24.98 2.2 36 70 -2.7 27.2
05:40 1016 30 846 24.98 2.5 36.5 70 -2.4 27.7
05:45 1016 30 846 24.98 2.4 36.3 71 -2.3 27.8
05:50 1016 30 845 24.95 2.1 35.9 72 -2.4 27.7
05:55 1016 30 845 24.95 1.9 35.5 73 -2.3 27.8
06:00 1016 30 845 24.95 1.7 35 72 -2.8 27
06:05 1016 30 845 24.95 2 35.6 72 -2.6 27.4
06:10 1016 30 845 24.95 1.9 35.5 72 -2.7 27.2
06:15 1016 30 845 24.95 2.1 35.8 70 -2.8 26.9
06:20 1016 30 845 24.95 2.2 36 71 -2.5 27.5
06:25 1016 30 845 24.95 2.2 35.9 71 -2.6 27.2
06:30 1016 30 845 24.95 2.2 36 71 -2.5 27.4
06:35 1016 30 845 24.95 2.2 35.9 71 -2.6 27.3
06:40 1016 30 845 24.95 2.4 36.4 69 -2.6 27.2
06:45 1016 30 845 24.95 2.4 36.3 70 -2.5 27.5
06:50 1016 30 845 24.95 2.3 36.1 70 -2.6 27.3
06:55 1016 30 845 24.95 2 35.6 72 -2.5 27.4
07:00 1016 30 845 24.95 1.7 35.1 73 -2.7 27.2
07:05 1016 30 845 24.95 1.5 34.7 73 -2.8 27
07:10 1016 30 845 24.95 1.4 34.5 74 -2.8 27
07:15 1016 30 845 24.95 1.1 34.1 75 -2.7 27.1
07:20 1016 30 845 24.95 1 33.8 76 -2.7 27.1
07:25 1016 30 845 24.95 0.8 33.4 76 -2.9 26.8
07:30 1016 30 845 24.95 1.2 34.2 74 -2.9 26.7
07:35 1016 30 845 24.95 1.5 34.7 73 -2.7 27.1
07:40 1016 30 845 24.95 1.5 34.7 74 -2.7 27.1
07:45 1016 30 845 24.95 1.5 34.6 73 -2.8 27
07:50 1016 30 845 24.95 1.3 34.4 75 -2.7 27.2
07:55 1016 30 845 24.95 1.1 34 75 -2.8 27
08:00 1016 30 845 24.95 1.1 33.9 75 -2.8 26.9
08:05 1016 30 845 24.95 1 33.9 75 -2.8 26.9
08:10 1016 30 845 24.95 0.6 33.2 77 -2.9 26.9
08:15 1016 30 845 24.95 0.4 32.8 78 -3 26.6
08:20 1016 30 845 24.95 0.4 32.7 77 -3.1 26.4
08:25 1016 30 845 24.95 0.5 33 77 -3.1 26.5
08:30 1016 30 845 24.95 0.8 33.4 76 -3 26.5
08:35 1016 30 845 24.95 0.9 33.7 75 -3 26.5
08:40 1016 30 845 24.95 1.1 34.1 73 -3.1 26.4
08:45 1016 30 845 24.95 1.4 34.5 73 -3 26.7
08:50 1016 30 845 24.95 1.7 35.1 72 -2.9 26.9
08:55 1016 30 845 24.95 2 35.5 70 -2.9 26.9
09:00 1016 30 845 24.95 2.2 35.9 70 -2.8 26.9
09:05 1016 30 845 24.95 2.4 36.3 69 -2.7 27.1
09:10 1016 30 845 24.95 2.7 36.8 67 -2.8 27
09:15 1016 30 845 24.95 3.1 37.5 65 -2.9 26.7
09:20 1016 30 845 24.95 3.5 38.3 63 -2.8 27
09:25 1016 30 845 24.95 3.8 38.8 63 -2.7 27.2
09:30 1016 30 845 24.95 3.8 38.9 65 -2.2 28
09:35 1016 30 845 24.95 4.1 39.3 62 -2.6 27.2
09:40 1016 30 845 24.95 4.5 40.2 61 -2.3 27.9
09:45 1016 30 845 24.95 4.4 39.8 63 -2 28.4
09:50 1016 30 845 24.95 4.9 40.9 62 -1.8 28.8
09:55 1016 30 845 24.95 5.2 41.4 59 -2 28.3
10:00 1016 30 845 24.95 5.6 42 58 -2 28.4
10:05 1015 29.97 845 24.95 6 42.8 56 -2.2 28.1
10:10 1015 29.97 845 24.95 6.7 44.1 54 -1.9 28.6
10:15 1015 29.97 845 24.95 7 44.6 54 -1.6 29.2
10:20 1015 29.97 844 24.92 7 44.5 55 -1.4 29.5
10:25 1015 29.97 844 24.92 7.3 45.2 54 -1.4 29.4
10:30 1015 29.97 844 24.92 7.3 45.2 55 -1.1 30
10:35 1015 29.97 844 24.92 7.9 46.2 52 -1.4 29.5
10:40 1015 29.97 844 24.92 8.5 47.2 51 -1 30.1
10:45 1015 29.97 844 24.92 8.6 47.4 51 -0.9 30.4
10:50 1015 29.97 844 24.92 8.3 47 52 -1 30.2
10:55 1015 29.97 844 24.92 9 48.3 50 -0.9 30.4
11:00 1015 29.97 844 24.92 9.6 49.3 47 -1.1 30.1
11:05 1015 29.97 844 24.92 10.1 50.1 48 -0.4 31.2
11:10 1015 29.97 844 24.92 10.4 50.7 46 -0.7 30.7
11:15 1015 29.97 844 24.92 10.5 51 45 -0.8 30.6
11:20 1015 29.97 844 24.92 10.7 51.2 44 -1 30.1
11:25 1015 29.97 844 24.92 10.8 51.4 43 -1.2 29.8
11:30 1014 29.94 844 24.92 10.3 50.5 45 -1.1 30.1
11:35 1014 29.94 844 24.92 10.4 50.7 42 -2.1 28.3
11:40 1014 29.94 844 24.92 11 51.9 40 -2.1 28.2
11:45 1014 29.94 843 24.89 11.1 52 42 -1.1 30
11:50 1014 29.94 843 24.89 10.1 50.2 44 -1.6 29.1
11:55 1014 29.94 843 24.89 11.3 52.3 40 -1.7 28.9
12:00 1014 29.94 843 24.89 11.9 53.5 40 -1.4 29.6
12:05 1014 29.94 843 24.89 11 51.8 41 -1.7 29
12:10 1014 29.94 843 24.89 10.3 50.6 42 -1.8 28.7
12:15 1014 29.94 843 24.89 10.9 51.7 41 -1.7 28.9
12:20 1014 29.94 843 24.89 10.8 51.5 46 -0.2 31.6
12:25 1014 29.94 843 24.89 11 51.7 45 -0.4 31.3
12:30 1014 29.94 843 24.89 11.5 52.7 45 -0.1 31.8
12:35 1014 29.94 843 24.89 11.3 52.4 46 0.1 32.2
12:40 1014 29.94 843 24.89 12.4 54.3 40 -0.7 30.7
12:45 1014 29.94 843 24.89 11.5 52.8 44 -0.1 31.8
12:50 1014 29.94 843 24.89 11.2 52.2 44 -0.7 30.7
12:55 1013 29.91 843 24.89 12.1 53.7 41 -0.8 30.5
13:00 1013 29.91 843 24.89 12.2 54 42 -0.4 31.3
13:05 1013 29.91 843 24.89 12.7 54.8 39 -0.7 30.8
13:10 1013 29.91 842 24.86 13.1 55.5 38 -0.7 30.7
13:15 1013 29.91 842 24.86 13.3 55.9 37 -0.9 30.4
13:20 1013 29.91 842 24.86 13.4 56.1 37 -1.1 30
13:25 1013 29.91 842 24.86 13.5 56.3 37 -1 30.2
13:30 1013 29.91 842 24.86 13.4 56.1 37 -1 30.3
13:35 1013 29.91 842 24.86 14 57.1 34 -1.8 28.8
13:40 1013 29.91 842 24.86 14.4 57.9 32 -1.8 28.7
13:45 1013 29.91 842 24.86 14.4 57.9 32 -2 28.3
13:50 1013 29.91 842 24.86 14.5 58.1 30 -2.5 27.4
13:55 1012 29.88 842 24.86 15 59 30 -2.2 28
14:00 1012 29.88 841 24.83 15.2 59.4 30 -2.4 27.7
14:05 1012 29.88 841 24.83 14.7 58.4 30 -2.5 27.5
14:10 1012 29.88 841 24.83 14.1 57.5 30 -3 26.6
14:15 1012 29.88 841 24.83 13.7 56.7 31 -3 26.5
14:20 1012 29.88 841 24.83 14.8 58.6 30 -2.5 27.5
14:25 1012 29.88 841 24.83 14.8 58.7 29 -3 26.6
14:30 1012 29.88 841 24.83 14.4 57.9 28 -4.1 24.7
14:35 1011 29.85 841 24.83 15.3 59.5 28 -2.9 26.7
14:40 1011 29.85 841 24.83 14.8 58.6 31 -1.9 28.5
14:45 1011 29.85 841 24.83 14.3 57.7 28 -4.1 24.6
14:50 1011 29.85 840 24.81 15 58.9 26 -4.1 24.7
14:55 1011 29.85 840 24.81 14.3 57.8 27 -4.2 24.4
15:00 1011 29.85 840 24.81 14.5 58.1 27 -4.1 24.7
15:05 1011 29.85 840 24.81 15.1 59.1 28 -3.5 25.8
15:10 1011 29.85 840 24.81 15.1 59.1 29 -3 26.7
15:15 1011 29.85 840 24.81 15 58.9 29 -2.8 27
15:20 1011 29.85 840 24.81 14.8 58.6 29 -3.2 26.3
15:25 1011 29.85 840 24.81 15.4 59.6 27 -3.3 26.1
15:30 1011 29.85 840 24.81 15.6 60 27 -3 26.6
15:35 1010 29.83 840 24.81 15.2 59.4 29 -2.7 27.1
15:40 1010 29.83 840 24.81 14.5 58.1 31 -2.5 27.4
15:45 1010 29.83 839 24.78 13.6 56.4 31 -3.1 26.4
15:50 1010 29.83 839 24.78 13.8 56.8 30 -3.4 25.9
15:55 1010 29.83 839 24.78 13.9 57.1 29 -3.5 25.6
16:00 1010 29.83 839 24.78 13.9 57 30 -3.3 26
16:05 1010 29.83 839 24.78 13.7 56.7 31 -3.2 26.2
16:10 1010 29.83 839 24.78 14 57.1 30 -3.3 26.1
16:15 1010 29.83 839 24.78 14 57.2 30 -3.4 25.9
16:20 1010 29.83 839 24.78 14.3 57.7 30 -3.1 26.4
16:25 1010 29.83 839 24.78 14.3 57.7 30 -3.2 26.3
16:30 1010 29.83 839 24.78 14 57.2 29 -3.6 25.5
16:35 1010 29.83 839 24.78 14 57.1 30 -3.4 25.8
16:40 1010 29.83 839 24.78 14.1 57.4 30 -3.2 26.2
16:45 1010 29.83 839 24.78 13.9 57.1 31 -2.8 26.9
16:50 1010 29.83 839 24.78 13.9 57 30 -3.3 26.1
16:55 1010 29.83 839 24.78 13.8 56.8 30 -3.4 25.8
17:00 1010 29.83 839 24.78 13.8 56.8 31 -3.2 26.3
17:05 1010 29.83 839 24.78 13.8 56.9 30 -3.6 25.5
17:10 1010 29.83 839 24.78 13.9 57 31 -3.1 26.4
17:15 1010 29.83 839 24.78 14 57.2 32 -2.5 27.5
17:20 1010 29.83 839 24.78 13.8 56.9 31 -2.8 26.9
17:25 1010 29.83 839 24.78 13.7 56.6 32 -2.9 26.9
17:30 1010 29.83 839 24.78 13.5 56.4 32 -2.6 27.4
17:35 1010 29.83 839 24.78 13.3 55.9 33 -2.4 27.7
17:40 1010 29.83 839 24.78 13 55.4 35 -2.2 28
17:45 1010 29.83 839 24.78 12.9 55.2 36 -1.9 28.5
17:50 1010 29.83 839 24.78 13 55.3 38 -1 30.2
17:55 1010 29.83 839 24.78 12.5 54.4 42 -0.1 31.7
18:00 1010 29.83 839 24.78 11.6 52.9 45 0 32
18:05 1010 29.83 839 24.78 11.3 52.4 46 0.2 32.4
18:10 1010 29.83 839 24.78 11.2 52.2 46 0.2 32.3
18:15 1010 29.83 839 24.78 11.2 52.2 47 0.3 32.5
18:20 1010 29.83 839 24.78 11.2 52.1 46 0.1 32.2
18:25 1010 29.83 839 24.78 10.8 51.4 48 0.2 32.3
18:30 1010 29.83 839 24.78 10.7 51.2 47 -0 31.9
18:35 1010 29.83 839 24.78 10.8 51.4 48 0.3 32.6
18:40 1010 29.83 839 24.78 10.5 50.8 53 1.4 34.5
18:45 1010 29.83 839 24.78 9.6 49.2 55 1.1 34
18:50 1010 29.83 839 24.78 9.5 49 56 1.1 34
18:55 1010 29.83 839 24.78 8.9 47.9 58 1.1 34
19:00 1010 29.83 839 24.78 8.4 47.2 60 1.1 33.9
19:05 1010 29.83 839 24.78 8.1 46.6 60 0.9 33.6
19:10 1010 29.83 839 24.78 7.9 46.3 61 0.9 33.7
19:15 1010 29.83 839 24.78 7.8 46 62 1 33.9
19:20 1010 29.83 839 24.78 7.7 45.8 62 0.9 33.6
19:25 1010 29.83 839 24.78 7.5 45.5 63 0.9 33.6
19:30 1010 29.83 839 24.78 7.2 44.9 63 0.7 33.3
19:35 1010 29.83 839 24.78 7 44.6 63 0.5 32.9
19:40 1010 29.83 839 24.78 7 44.5 62 0.2 32.3
19:45 1010 29.83 839 24.78 6.9 44.4 64 0.5 32.9
19:50 1010 29.83 839 24.78 6.6 43.9 64 0.4 32.7
19:55 1010 29.83 839 24.78 6.3 43.3 65 0.2 32.4
20:00 1010 29.83 839 24.78 6.2 43.1 64 -0 31.9
20:05 1010 29.83 839 24.78 6.1 43 64 -0.2 31.6
20:10 1010 29.83 839 24.78 6.3 43.3 61 -0.6 30.9
20:15 1010 29.83 839 24.78 6.5 43.7 60 -0.8 30.6
20:20 1010 29.83 839 24.78 6.8 44.2 58 -0.9 30.4
20:25 1010 29.83 839 24.78 6.6 43.9 59 -0.9 30.4
20:30 1010 29.83 839 24.78 6.4 43.6 60 -0.8 30.5
20:35 1010 29.83 839 24.78 6.2 43.1 61 -0.9 30.4
20:40 1010 29.83 839 24.78 6.2 43.1 59 -1.2 29.8
20:45 1010 29.83 839 24.78 6.6 43.9 57 -1.2 29.8
20:50 1010 29.83 839 24.78 7 44.5 55 -1.4 29.5
20:55 1010 29.83 839 24.78 7.1 44.7 55 -1.4 29.6
21:00 1010 29.83 839 24.78 6.9 44.5 55 -1.4 29.5
21:05 1010 29.83 839 24.78 6.5 43.7 59 -0.9 30.3
21:10 1010 29.83 839 24.78 6.2 43.1 58 -1.4 29.5
21:15 1010 29.83 839 24.78 6.1 42.9 58 -1.6 29.1
21:20 1010 29.83 839 24.78 6.2 43.2 57 -1.6 29.1
21:25 1010 29.83 839 24.78 6.3 43.3 58 -1.3 29.6
21:30 1010 29.83 839 24.78 5.9 42.7 59 -1.4 29.6
21:35 1010 29.83 839 24.78 6.2 43.2 57 -1.5 29.2
21:40 1010 29.83 839 24.78 6.2 43.2 58 -1.4 29.4
21:45 1010 29.83 839 24.78 6 42.7 60 -1.2 29.9
21:50 1010 29.83 839 24.78 5.8 42.5 59 -1.5 29.2
21:55 1010 29.83 839 24.78 5.8 42.4 60 -1.4 29.4
22:00 1010 29.83 839 24.78 5.9 42.6 60 -1.3 29.6
22:05 1010 29.83 839 24.78 5.8 42.5 60 -1.3 29.7
22:10 1009 29.8 839 24.78 5.5 41.9 62 -1.2 29.8
22:15 1009 29.8 839 24.78 5.2 41.3 63 -1.2 29.8
22:20 1009 29.8 839 24.78 5.1 41.1 63 -1.4 29.6
22:25 1009 29.8 839 24.78 5.2 41.3 62 -1.4 29.4
22:30 1009 29.8 839 24.78 5.2 41.3 62 -1.4 29.4
22:35 1009 29.8 838 24.75 5.2 41.3 61 -1.7 29
22:40 1009 29.8 838 24.75 5.4 41.7 61 -1.5 29.3
22:45 1009 29.8 838 24.75 5.5 41.9 61 -1.5 29.3
22:50 1009 29.8 838 24.75 5.3 41.6 62 -1.4 29.6
22:55 1009 29.8 838 24.75 5.1 41.1 63 -1.3 29.6
23:00 1009 29.8 838 24.75 4.9 40.8 63 -1.5 29.3
23:05 1009 29.8 838 24.75 5.2 41.3 60 -1.9 28.6
23:10 1009 29.8 838 24.75 5.7 42.2 58 -2 28.5
23:15 1009 29.8 838 24.75 5.8 42.4 58 -1.8 28.8
23:20 1009 29.8 838 24.75 5.5 41.9 60 -1.6 29.2
23:25 1009 29.8 838 24.75 5.5 41.9 59 -1.8 28.7
23:30 1009 29.8 838 24.75 5.4 41.7 59 -1.9 28.5
23:35 1009 29.8 838 24.75 5.5 41.9 60 -1.7 28.9
23:40 1009 29.8 838 24.75 5.5 41.9 60 -1.7 29
23:45 1009 29.8 838 24.75 5.4 41.7 60 -1.8 28.7
23:50 1009 29.8 838 24.75 5.5 41.9 58 -2 28.4
23:55 1009 29.8 838 24.75 5.6 42.1 58 -2 28.4
24:00 1009 29.8 839 24.78 5.9 42.6 57 -2.1 28.3